sensor_id;sensor_type;location;lat;lon;timestamp;temperature;humidity
24224;DHT22;12359;49.716;9.212;2022-11-18T00:01:20;9.60;97.40
24224;DHT22;12359;49.716;9.212;2022-11-18T00:03:46;9.60;97.40
24224;DHT22;12359;49.716;9.212;2022-11-18T00:06:15;9.60;97.00
24224;DHT22;12359;49.716;9.212;2022-11-18T00:08:41;9.60;96.80
24224;DHT22;12359;49.716;9.212;2022-11-18T00:11:12;9.50;96.50
24224;DHT22;12359;49.716;9.212;2022-11-18T00:13:58;9.60;96.90
24224;DHT22;12359;49.716;9.212;2022-11-18T00:16:42;9.60;96.90
24224;DHT22;12359;49.716;9.212;2022-11-18T00:19:07;9.60;97.40
24224;DHT22;12359;49.716;9.212;2022-11-18T00:21:33;9.60;97.30
24224;DHT22;12359;49.716;9.212;2022-11-18T00:23:58;9.60;97.10
24224;DHT22;12359;49.716;9.212;2022-11-18T00:26:24;9.60;97.10
24224;DHT22;12359;49.716;9.212;2022-11-18T00:28:50;9.60;97.10
24224;DHT22;12359;49.716;9.212;2022-11-18T00:31:15;9.60;96.60
24224;DHT22;12359;49.716;9.212;2022-11-18T00:33:41;9.60;96.90
24224;DHT22;12359;49.716;9.212;2022-11-18T00:36:09;9.60;96.50
24224;DHT22;12359;49.716;9.212;2022-11-18T00:38:36;9.60;96.60
24224;DHT22;12359;49.716;9.212;2022-11-18T00:43:28;9.60;96.60
24224;DHT22;12359;49.716;9.212;2022-11-18T00:45:54;9.60;96.50
24224;DHT22;12359;49.716;9.212;2022-11-18T00:48:20;9.60;96.50
24224;DHT22;12359;49.716;9.212;2022-11-18T00:50:50;9.70;96.40
24224;DHT22;12359;49.716;9.212;2022-11-18T00:53:17;9.70;96.50
24224;DHT22;12359;49.716;9.212;2022-11-18T00:55:43;9.60;95.50
24224;DHT22;12359;49.716;9.212;2022-11-18T00:58:09;9.60;95.70
24224;DHT22;12359;49.716;9.212;2022-11-18T01:00:39;9.60;95.10
24224;DHT22;12359;49.716;9.212;2022-11-18T01:03:05;9.60;94.90
24224;DHT22;12359;49.716;9.212;2022-11-18T01:05:31;9.50;94.90
24224;DHT22;12359;49.716;9.212;2022-11-18T01:07:57;9.50;95.00
24224;DHT22;12359;49.716;9.212;2022-11-18T01:10:22;9.50;95.00
24224;DHT22;12359;49.716;9.212;2022-11-18T01:12:48;9.40;94.50
24224;DHT22;12359;49.716;9.212;2022-11-18T01:15:41;9.40;94.10
24224;DHT22;12359;49.716;9.212;2022-11-18T01:18:07;9.40;93.80
24224;DHT22;12359;49.716;9.212;2022-11-18T01:20:33;9.40;93.80
24224;DHT22;12359;49.716;9.212;2022-11-18T01:23:00;9.30;93.40
24224;DHT22;12359;49.716;9.212;2022-11-18T01:25:27;9.20;92.90
24224;DHT22;12359;49.716;9.212;2022-11-18T01:27:53;9.20;93.30
24224;DHT22;12359;49.716;9.212;2022-11-18T01:30:19;9.20;93.50
24224;DHT22;12359;49.716;9.212;2022-11-18T01:32:44;9.10;93.40
24224;DHT22;12359;49.716;9.212;2022-11-18T01:35:10;9.10;93.50
24224;DHT22;12359;49.716;9.212;2022-11-18T01:37:36;9.00;91.60
24224;DHT22;12359;49.716;9.212;2022-11-18T01:40:07;9.00;92.70
24224;DHT22;12359;49.716;9.212;2022-11-18T01:42:34;9.00;93.80
24224;DHT22;12359;49.716;9.212;2022-11-18T01:45:03;9.00;93.80
24224;DHT22;12359;49.716;9.212;2022-11-18T01:47:40;9.00;93.90
24224;DHT22;12359;49.716;9.212;2022-11-18T01:50:07;9.00;94.50
24224;DHT22;12359;49.716;9.212;2022-11-18T01:52:34;9.00;94.30
24224;DHT22;12359;49.716;9.212;2022-11-18T01:55:05;9.00;94.50
24224;DHT22;12359;49.716;9.212;2022-11-18T01:57:32;9.10;94.50
24224;DHT22;12359;49.716;9.212;2022-11-18T02:00:00;9.10;94.90
24224;DHT22;12359;49.716;9.212;2022-11-18T02:02:30;9.10;95.30
24224;DHT22;12359;49.716;9.212;2022-11-18T02:04:58;9.20;95.50
24224;DHT22;12359;49.716;9.212;2022-11-18T02:07:25;9.20;95.20
24224;DHT22;12359;49.716;9.212;2022-11-18T02:09:51;9.10;94.30
24224;DHT22;12359;49.716;9.212;2022-11-18T02:12:18;9.20;94.40
24224;DHT22;12359;49.716;9.212;2022-11-18T02:14:45;9.20;94.50
24224;DHT22;12359;49.716;9.212;2022-11-18T02:20:11;9.20;94.60
24224;DHT22;12359;49.716;9.212;2022-11-18T02:33:23;9.20;94.60
24224;DHT22;12359;49.716;9.212;2022-11-18T02:36:07;9.20;94.50
24224;DHT22;12359;49.716;9.212;2022-11-18T02:38:41;9.20;94.70
24224;DHT22;12359;49.716;9.212;2022-11-18T02:41:14;9.20;94.40
24224;DHT22;12359;49.716;9.212;2022-11-18T02:44:15;9.20;93.70
24224;DHT22;12359;49.716;9.212;2022-11-18T02:46:35;9.20;93.70
24224;DHT22;12359;49.716;9.212;2022-11-18T02:49:06;9.20;93.70
24224;DHT22;12359;49.716;9.212;2022-11-18T02:51:33;9.20;94.10
24224;DHT22;12359;49.716;9.212;2022-11-18T02:54:04;9.20;94.10
24224;DHT22;12359;49.716;9.212;2022-11-18T02:56:33;9.20;93.90
24224;DHT22;12359;49.716;9.212;2022-11-18T02:58:59;9.20;93.70
24224;DHT22;12359;49.716;9.212;2022-11-18T03:01:28;9.30;94.10
24224;DHT22;12359;49.716;9.212;2022-11-18T03:03:55;9.30;93.80
24224;DHT22;12359;49.716;9.212;2022-11-18T03:09:13;9.30;93.60
24224;DHT22;12359;49.716;9.212;2022-11-18T03:17:56;9.20;93.90
24224;DHT22;12359;49.716;9.212;2022-11-18T03:20:30;9.30;94.30
24224;DHT22;12359;49.716;9.212;2022-11-18T03:23:20;9.20;93.10
24224;DHT22;12359;49.716;9.212;2022-11-18T03:26:01;9.10;93.40
24224;DHT22;12359;49.716;9.212;2022-11-18T03:31:11;9.10;95.60
24224;DHT22;12359;49.716;9.212;2022-11-18T03:33:44;9.10;95.60
24224;DHT22;12359;49.716;9.212;2022-11-18T03:36:13;9.10;96.20
24224;DHT22;12359;49.716;9.212;2022-11-18T03:38:45;9.10;96.50
24224;DHT22;12359;49.716;9.212;2022-11-18T03:41:14;9.20;96.30
24224;DHT22;12359;49.716;9.212;2022-11-18T03:43:49;9.20;96.40
24224;DHT22;12359;49.716;9.212;2022-11-18T03:46:21;9.10;94.80
24224;DHT22;12359;49.716;9.212;2022-11-18T03:48:51;9.10;95.60
24224;DHT22;12359;49.716;9.212;2022-11-18T03:51:22;9.10;95.50
24224;DHT22;12359;49.716;9.212;2022-11-18T03:53:56;9.20;95.60
24224;DHT22;12359;49.716;9.212;2022-11-18T03:56:33;9.20;95.50
24224;DHT22;12359;49.716;9.212;2022-11-18T03:59:17;9.20;95.40
24224;DHT22;12359;49.716;9.212;2022-11-18T04:01:48;9.20;95.40
24224;DHT22;12359;49.716;9.212;2022-11-18T04:04:17;9.30;95.50
24224;DHT22;12359;49.716;9.212;2022-11-18T04:06:48;9.30;95.60
24224;DHT22;12359;49.716;9.212;2022-11-18T04:09:23;9.30;95.20
24224;DHT22;12359;49.716;9.212;2022-11-18T04:11:55;9.30;95.00
24224;DHT22;12359;49.716;9.212;2022-11-18T04:14:34;9.30;95.00
24224;DHT22;12359;49.716;9.212;2022-11-18T04:17:06;9.30;94.40
24224;DHT22;12359;49.716;9.212;2022-11-18T04:19:33;9.30;93.60
24224;DHT22;12359;49.716;9.212;2022-11-18T04:21:58;9.30;93.50
24224;DHT22;12359;49.716;9.212;2022-11-18T04:24:24;9.30;94.60
24224;DHT22;12359;49.716;9.212;2022-11-18T04:26:50;9.30;94.40
24224;DHT22;12359;49.716;9.212;2022-11-18T04:29:15;9.30;94.50
24224;DHT22;12359;49.716;9.212;2022-11-18T04:31:41;9.30;94.60
24224;DHT22;12359;49.716;9.212;2022-11-18T04:34:06;9.30;94.80
24224;DHT22;12359;49.716;9.212;2022-11-18T04:36:32;9.30;94.70
24224;DHT22;12359;49.716;9.212;2022-11-18T04:38:58;9.40;94.80
24224;DHT22;12359;49.716;9.212;2022-11-18T04:41:23;9.40;94.70
24224;DHT22;12359;49.716;9.212;2022-11-18T04:44:09;9.40;94.40
24224;DHT22;12359;49.716;9.212;2022-11-18T04:46:41;9.40;94.60
24224;DHT22;12359;49.716;9.212;2022-11-18T04:49:12;9.40;95.20
24224;DHT22;12359;49.716;9.212;2022-11-18T04:51:39;9.40;95.00
24224;DHT22;12359;49.716;9.212;2022-11-18T04:54:05;9.40;94.80
24224;DHT22;12359;49.716;9.212;2022-11-18T04:56:31;9.40;95.00
24224;DHT22;12359;49.716;9.212;2022-11-18T04:58:58;9.50;95.00
24224;DHT22;12359;49.716;9.212;2022-11-18T05:01:26;9.50;95.00
24224;DHT22;12359;49.716;9.212;2022-11-18T05:03:51;9.50;95.10
24224;DHT22;12359;49.716;9.212;2022-11-18T05:06:17;9.50;95.20
24224;DHT22;12359;49.716;9.212;2022-11-18T05:08:43;9.50;94.60
24224;DHT22;12359;49.716;9.212;2022-11-18T05:11:08;9.50;94.80
24224;DHT22;12359;49.716;9.212;2022-11-18T05:13:53;9.50;94.80
24224;DHT22;12359;49.716;9.212;2022-11-18T05:16:18;9.60;95.00
24224;DHT22;12359;49.716;9.212;2022-11-18T05:18:44;9.60;95.00
24224;DHT22;12359;49.716;9.212;2022-11-18T05:21:10;9.60;94.20
24224;DHT22;12359;49.716;9.212;2022-11-18T05:23:36;9.50;93.80
24224;DHT22;12359;49.716;9.212;2022-11-18T05:26:05;9.50;93.60
24224;DHT22;12359;49.716;9.212;2022-11-18T05:28:32;9.50;93.80
24224;DHT22;12359;49.716;9.212;2022-11-18T05:30:57;9.60;94.50
24224;DHT22;12359;49.716;9.212;2022-11-18T05:33:23;9.60;94.70
24224;DHT22;12359;49.716;9.212;2022-11-18T05:35:49;9.60;94.50
24224;DHT22;12359;49.716;9.212;2022-11-18T05:38:15;9.60;94.60
24224;DHT22;12359;49.716;9.212;2022-11-18T05:40:43;9.60;94.60
24224;DHT22;12359;49.716;9.212;2022-11-18T05:43:10;9.70;94.60
24224;DHT22;12359;49.716;9.212;2022-11-18T05:45:39;9.60;94.40
24224;DHT22;12359;49.716;9.212;2022-11-18T05:48:06;9.60;94.00
24224;DHT22;12359;49.716;9.212;2022-11-18T05:50:34;9.60;93.90
24224;DHT22;12359;49.716;9.212;2022-11-18T05:53:00;9.70;94.00
24224;DHT22;12359;49.716;9.212;2022-11-18T05:55:52;9.60;93.40
24224;DHT22;12359;49.716;9.212;2022-11-18T05:58:14;9.60;94.10
24224;DHT22;12359;49.716;9.212;2022-11-18T06:00:40;9.60;94.50
24224;DHT22;12359;49.716;9.212;2022-11-18T06:03:12;9.60;94.30
24224;DHT22;12359;49.716;9.212;2022-11-18T06:05:40;9.60;94.00
24224;DHT22;12359;49.716;9.212;2022-11-18T06:08:07;9.60;94.10
24224;DHT22;12359;49.716;9.212;2022-11-18T06:10:35;9.70;94.20
24224;DHT22;12359;49.716;9.212;2022-11-18T06:13:05;9.60;93.80
24224;DHT22;12359;49.716;9.212;2022-11-18T06:15:37;9.60;94.30
24224;DHT22;12359;49.716;9.212;2022-11-18T06:18:17;9.70;94.10
24224;DHT22;12359;49.716;9.212;2022-11-18T06:20:46;9.70;94.20
24224;DHT22;12359;49.716;9.212;2022-11-18T06:23:12;9.70;94.20
24224;DHT22;12359;49.716;9.212;2022-11-18T06:25:39;9.70;94.20
24224;DHT22;12359;49.716;9.212;2022-11-18T06:28:06;9.70;94.30
24224;DHT22;12359;49.716;9.212;2022-11-18T06:30:33;9.70;94.10
24224;DHT22;12359;49.716;9.212;2022-11-18T06:32:59;9.70;93.70
24224;DHT22;12359;49.716;9.212;2022-11-18T06:35:24;9.70;93.50
24224;DHT22;12359;49.716;9.212;2022-11-18T06:37:50;9.70;93.10
24224;DHT22;12359;49.716;9.212;2022-11-18T06:40:16;9.60;93.40
24224;DHT22;12359;49.716;9.212;2022-11-18T06:42:42;9.70;94.00
24224;DHT22;12359;49.716;9.212;2022-11-18T06:45:26;9.70;94.10
24224;DHT22;12359;49.716;9.212;2022-11-18T06:47:56;9.70;94.20
24224;DHT22;12359;49.716;9.212;2022-11-18T06:50:21;9.70;94.00
24224;DHT22;12359;49.716;9.212;2022-11-18T06:52:47;9.70;94.30
24224;DHT22;12359;49.716;9.212;2022-11-18T06:55:13;9.70;94.40
24224;DHT22;12359;49.716;9.212;2022-11-18T06:57:38;9.70;94.00
24224;DHT22;12359;49.716;9.212;2022-11-18T07:00:04;9.70;94.20
24224;DHT22;12359;49.716;9.212;2022-11-18T07:02:30;9.70;94.40
24224;DHT22;12359;49.716;9.212;2022-11-18T07:04:56;9.70;94.30
24224;DHT22;12359;49.716;9.212;2022-11-18T07:07:22;9.70;94.20
24224;DHT22;12359;49.716;9.212;2022-11-18T07:09:47;9.70;93.90
24224;DHT22;12359;49.716;9.212;2022-11-18T07:12:13;9.80;94.10
24224;DHT22;12359;49.716;9.212;2022-11-18T07:14:38;9.80;93.70
24224;DHT22;12359;49.716;9.212;2022-11-18T07:17:04;9.80;93.20
24224;DHT22;12359;49.716;9.212;2022-11-18T07:19:30;9.80;93.00
24224;DHT22;12359;49.716;9.212;2022-11-18T07:21:56;9.90;92.60
24224;DHT22;12359;49.716;9.212;2022-11-18T07:24:23;9.90;92.30
24224;DHT22;12359;49.716;9.212;2022-11-18T07:26:49;9.90;92.90
24224;DHT22;12359;49.716;9.212;2022-11-18T07:29:16;9.90;93.00
24224;DHT22;12359;49.716;9.212;2022-11-18T07:31:42;9.90;92.10
24224;DHT22;12359;49.716;9.212;2022-11-18T07:34:08;10.00;92.80
24224;DHT22;12359;49.716;9.212;2022-11-18T07:36:34;10.00;92.80
24224;DHT22;12359;49.716;9.212;2022-11-18T07:39:00;10.00;92.60
24224;DHT22;12359;49.716;9.212;2022-11-18T07:41:28;10.10;92.90
24224;DHT22;12359;49.716;9.212;2022-11-18T07:43:55;10.10;92.70
24224;DHT22;12359;49.716;9.212;2022-11-18T07:46:24;10.10;92.60
24224;DHT22;12359;49.716;9.212;2022-11-18T07:48:52;10.10;92.40
24224;DHT22;12359;49.716;9.212;2022-11-18T07:51:20;10.10;90.30
24224;DHT22;12359;49.716;9.212;2022-11-18T07:53:46;10.10;90.50
24224;DHT22;12359;49.716;9.212;2022-11-18T07:56:12;10.10;90.60
24224;DHT22;12359;49.716;9.212;2022-11-18T07:58:38;10.10;90.50
24224;DHT22;12359;49.716;9.212;2022-11-18T08:01:14;10.10;90.90
24224;DHT22;12359;49.716;9.212;2022-11-18T08:03:41;10.10;90.60
24224;DHT22;12359;49.716;9.212;2022-11-18T08:06:09;10.10;90.70
24224;DHT22;12359;49.716;9.212;2022-11-18T08:08:36;10.20;90.60
24224;DHT22;12359;49.716;9.212;2022-11-18T08:11:04;10.20;87.90
24224;DHT22;12359;49.716;9.212;2022-11-18T08:13:33;10.20;88.70
24224;DHT22;12359;49.716;9.212;2022-11-18T08:15:59;10.20;87.60
24224;DHT22;12359;49.716;9.212;2022-11-18T08:18:27;10.20;88.10
24224;DHT22;12359;49.716;9.212;2022-11-18T08:20:53;10.20;87.50
24224;DHT22;12359;49.716;9.212;2022-11-18T08:23:18;10.20;86.80
24224;DHT22;12359;49.716;9.212;2022-11-18T08:25:45;10.30;87.20
24224;DHT22;12359;49.716;9.212;2022-11-18T08:28:12;10.30;83.00
24224;DHT22;12359;49.716;9.212;2022-11-18T08:30:38;10.30;77.20
24224;DHT22;12359;49.716;9.212;2022-11-18T08:33:04;10.40;81.00
24224;DHT22;12359;49.716;9.212;2022-11-18T08:35:31;10.40;80.30
24224;DHT22;12359;49.716;9.212;2022-11-18T08:37:57;10.40;80.60
24224;DHT22;12359;49.716;9.212;2022-11-18T08:40:23;10.40;77.50
24224;DHT22;12359;49.716;9.212;2022-11-18T08:42:48;10.50;77.20
24224;DHT22;12359;49.716;9.212;2022-11-18T08:45:14;10.40;71.10
24224;DHT22;12359;49.716;9.212;2022-11-18T08:47:40;10.40;69.50
24224;DHT22;12359;49.716;9.212;2022-11-18T08:50:08;10.40;65.70
24224;DHT22;12359;49.716;9.212;2022-11-18T08:52:34;10.30;67.90
24224;DHT22;12359;49.716;9.212;2022-11-18T08:55:00;10.40;66.40
24224;DHT22;12359;49.716;9.212;2022-11-18T08:57:26;10.40;66.00
24224;DHT22;12359;49.716;9.212;2022-11-18T08:59:52;10.30;64.70
24224;DHT22;12359;49.716;9.212;2022-11-18T09:02:19;10.30;59.30
24224;DHT22;12359;49.716;9.212;2022-11-18T09:04:46;10.40;62.00
24224;DHT22;12359;49.716;9.212;2022-11-18T09:07:12;10.30;62.40
24224;DHT22;12359;49.716;9.212;2022-11-18T09:09:38;10.20;47.20
24224;DHT22;12359;49.716;9.212;2022-11-18T09:12:04;10.20;43.20
24224;DHT22;12359;49.716;9.212;2022-11-18T09:14:30;10.30;52.70
24224;DHT22;12359;49.716;9.212;2022-11-18T09:16:55;10.20;52.40
24224;DHT22;12359;49.716;9.212;2022-11-18T09:19:21;10.20;55.20
24224;DHT22;12359;49.716;9.212;2022-11-18T09:21:47;10.20;58.90
24224;DHT22;12359;49.716;9.212;2022-11-18T09:24:13;10.20;59.70
24224;DHT22;12359;49.716;9.212;2022-11-18T09:26:38;10.30;59.20
24224;DHT22;12359;49.716;9.212;2022-11-18T09:29:05;10.20;59.00
24224;DHT22;12359;49.716;9.212;2022-11-18T09:31:31;10.20;66.50
24224;DHT22;12359;49.716;9.212;2022-11-18T09:33:59;10.30;71.40
24224;DHT22;12359;49.716;9.212;2022-11-18T09:36:26;10.20;64.00
24224;DHT22;12359;49.716;9.212;2022-11-18T09:38:52;10.20;61.20
24224;DHT22;12359;49.716;9.212;2022-11-18T09:41:59;10.30;62.30
24224;DHT22;12359;49.716;9.212;2022-11-18T09:49:47;10.40;65.70
24224;DHT22;12359;49.716;9.212;2022-11-18T09:54:48;10.40;67.20
24224;DHT22;12359;49.716;9.212;2022-11-18T09:57:16;10.50;64.90
24224;DHT22;12359;49.716;9.212;2022-11-18T09:59:42;10.50;63.10
24224;DHT22;12359;49.716;9.212;2022-11-18T10:02:44;10.60;64.00
24224;DHT22;12359;49.716;9.212;2022-11-18T10:05:26;10.60;62.60
24224;DHT22;12359;49.716;9.212;2022-11-18T10:10:40;10.70;63.00
24224;DHT22;12359;49.716;9.212;2022-11-18T10:19:10;10.70;61.30
24224;DHT22;12359;49.716;9.212;2022-11-18T10:24:29;10.70;58.90
24224;DHT22;12359;49.716;9.212;2022-11-18T10:26:58;10.70;56.60
24224;DHT22;12359;49.716;9.212;2022-11-18T10:29:24;10.80;59.20
24224;DHT22;12359;49.716;9.212;2022-11-18T10:34:29;10.80;60.70
24224;DHT22;12359;49.716;9.212;2022-11-18T10:40:23;10.80;63.00
24224;DHT22;12359;49.716;9.212;2022-11-18T10:42:49;10.80;54.90
24224;DHT22;12359;49.716;9.212;2022-11-18T10:45:21;10.90;60.60
24224;DHT22;12359;49.716;9.212;2022-11-18T10:48:16;10.90;59.30
24224;DHT22;12359;49.716;9.212;2022-11-18T10:50:45;11.00;57.10
24224;DHT22;12359;49.716;9.212;2022-11-18T10:53:32;11.00;57.60
24224;DHT22;12359;49.716;9.212;2022-11-18T10:56:03;11.00;59.40
24224;DHT22;12359;49.716;9.212;2022-11-18T10:58:30;11.00;57.90
24224;DHT22;12359;49.716;9.212;2022-11-18T11:01:21;11.00;55.80
24224;DHT22;12359;49.716;9.212;2022-11-18T11:06:28;11.10;60.00
24224;DHT22;12359;49.716;9.212;2022-11-18T11:11:40;11.20;55.10
24224;DHT22;12359;49.716;9.212;2022-11-18T11:19:34;11.50;51.20
24224;DHT22;12359;49.716;9.212;2022-11-18T11:22:07;11.50;46.20
24224;DHT22;12359;49.716;9.212;2022-11-18T11:24:33;11.60;48.70
24224;DHT22;12359;49.716;9.212;2022-11-18T11:27:40;11.60;50.80
24224;DHT22;12359;49.716;9.212;2022-11-18T11:35:21;11.70;41.60
24224;DHT22;12359;49.716;9.212;2022-11-18T11:52:10;11.80;27.60
24224;DHT22;12359;49.716;9.212;2022-11-18T11:57:32;11.80;30.10
24224;DHT22;12359;49.716;9.212;2022-11-18T12:00:04;11.80;30.40
24224;DHT22;12359;49.716;9.212;2022-11-18T12:05:34;11.80;23.60
24224;DHT22;12359;49.716;9.212;2022-11-18T12:08:08;11.80;26.00
24224;DHT22;12359;49.716;9.212;2022-11-18T12:13:36;11.90;27.70
24224;DHT22;12359;49.716;9.212;2022-11-18T12:19:00;12.00;23.80
24224;DHT22;12359;49.716;9.212;2022-11-18T12:26:47;12.20;29.30
24224;DHT22;12359;49.716;9.212;2022-11-18T12:31:46;12.20;17.70
24224;DHT22;12359;49.716;9.212;2022-11-18T12:35:01;12.40;16.70
24224;DHT22;12359;49.716;9.212;2022-11-18T12:50:55;12.80;1.00
24224;DHT22;12359;49.716;9.212;2022-11-18T12:56:35;12.90;1.00
24224;DHT22;12359;49.716;9.212;2022-11-18T12:59:01;12.80;1.00
24224;DHT22;12359;49.716;9.212;2022-11-18T13:01:31;12.80;1.00
24224;DHT22;12359;49.716;9.212;2022-11-18T13:04:07;12.80;1.00
24224;DHT22;12359;49.716;9.212;2022-11-18T13:06:35;12.70;1.00
24224;DHT22;12359;49.716;9.212;2022-11-18T13:09:04;12.70;1.00
24224;DHT22;12359;49.716;9.212;2022-11-18T13:11:33;12.70;1.00
24224;DHT22;12359;49.716;9.212;2022-11-18T13:16:58;12.50;1.00
24224;DHT22;12359;49.716;9.212;2022-11-18T13:19:42;12.30;1.00
24224;DHT22;12359;49.716;9.212;2022-11-18T13:22:21;12.10;1.00
24224;DHT22;12359;49.716;9.212;2022-11-18T13:25:21;12.00;1.00
24224;DHT22;12359;49.716;9.212;2022-11-18T13:27:48;11.90;1.00
24224;DHT22;12359;49.716;9.212;2022-11-18T13:30:16;11.90;1.00
24224;DHT22;12359;49.716;9.212;2022-11-18T13:32:46;11.90;1.00
24224;DHT22;12359;49.716;9.212;2022-11-18T13:35:16;11.80;1.00
24224;DHT22;12359;49.716;9.212;2022-11-18T13:40:23;12.00;1.00
24224;DHT22;12359;49.716;9.212;2022-11-18T13:42:49;12.10;1.00
24224;DHT22;12359;49.716;9.212;2022-11-18T13:45:16;12.20;1.00
24224;DHT22;12359;49.716;9.212;2022-11-18T13:48:26;12.20;1.00
24224;DHT22;12359;49.716;9.212;2022-11-18T13:50:50;12.30;1.00
24224;DHT22;12359;49.716;9.212;2022-11-18T13:53:31;12.30;1.00
24224;DHT22;12359;49.716;9.212;2022-11-18T13:56:24;12.20;1.00
24224;DHT22;12359;49.716;9.212;2022-11-18T14:01:22;11.80;1.00
24224;DHT22;12359;49.716;9.212;2022-11-18T14:03:50;11.80;1.00
24224;DHT22;12359;49.716;9.212;2022-11-18T14:06:45;11.70;1.00
24224;DHT22;12359;49.716;9.212;2022-11-18T14:09:27;11.50;1.00
24224;DHT22;12359;49.716;9.212;2022-11-18T14:12:19;11.40;1.00
24224;DHT22;12359;49.716;9.212;2022-11-18T14:14:45;11.30;7.40
24224;DHT22;12359;49.716;9.212;2022-11-18T14:17:19;11.20;15.50
24224;DHT22;12359;49.716;9.212;2022-11-18T14:19:50;11.20;11.60
24224;DHT22;12359;49.716;9.212;2022-11-18T14:22:28;11.20;13.90
24224;DHT22;12359;49.716;9.212;2022-11-18T14:27:43;11.10;16.90
24224;DHT22;12359;49.716;9.212;2022-11-18T14:35:31;11.10;23.90
24224;DHT22;12359;49.716;9.212;2022-11-18T14:37:57;11.10;22.70
24224;DHT22;12359;49.716;9.212;2022-11-18T14:40:23;11.10;22.80
24224;DHT22;12359;49.716;9.212;2022-11-18T14:42:48;11.10;25.80
24224;DHT22;12359;49.716;9.212;2022-11-18T14:45:14;11.00;25.80
24224;DHT22;12359;49.716;9.212;2022-11-18T14:47:40;11.00;20.50
24224;DHT22;12359;49.716;9.212;2022-11-18T14:50:13;10.90;20.90
24224;DHT22;12359;49.716;9.212;2022-11-18T14:52:39;10.90;23.20
24224;DHT22;12359;49.716;9.212;2022-11-18T14:55:05;10.90;28.70
24224;DHT22;12359;49.716;9.212;2022-11-18T14:57:31;10.90;35.70
24224;DHT22;12359;49.716;9.212;2022-11-18T14:59:58;10.80;30.10
24224;DHT22;12359;49.716;9.212;2022-11-18T15:02:24;10.80;28.20
24224;DHT22;12359;49.716;9.212;2022-11-18T15:04:50;10.70;34.80
24224;DHT22;12359;49.716;9.212;2022-11-18T15:07:17;10.70;33.20
24224;DHT22;12359;49.716;9.212;2022-11-18T15:09:43;10.60;37.40
24224;DHT22;12359;49.716;9.212;2022-11-18T15:12:09;10.40;30.10
24224;DHT22;12359;49.716;9.212;2022-11-18T15:14:34;10.30;38.90
24224;DHT22;12359;49.716;9.212;2022-11-18T15:17:04;10.30;45.10
24224;DHT22;12359;49.716;9.212;2022-11-18T15:19:29;10.20;46.50
24224;DHT22;12359;49.716;9.212;2022-11-18T15:21:55;10.10;47.10
24224;DHT22;12359;49.716;9.212;2022-11-18T15:24:21;10.00;51.20
24224;DHT22;12359;49.716;9.212;2022-11-18T15:26:47;10.00;54.90
24224;DHT22;12359;49.716;9.212;2022-11-18T15:29:22;9.90;57.30
24224;DHT22;12359;49.716;9.212;2022-11-18T15:31:48;9.80;57.70
24224;DHT22;12359;49.716;9.212;2022-11-18T15:34:15;9.80;55.40
24224;DHT22;12359;49.716;9.212;2022-11-18T15:36:42;9.70;57.20
24224;DHT22;12359;49.716;9.212;2022-11-18T15:39:09;9.60;58.30
24224;DHT22;12359;49.716;9.212;2022-11-18T15:41:35;9.60;63.10
24224;DHT22;12359;49.716;9.212;2022-11-18T15:44:03;9.50;67.00
24224;DHT22;12359;49.716;9.212;2022-11-18T15:46:29;9.60;67.70
24224;DHT22;12359;49.716;9.212;2022-11-18T15:48:56;9.50;68.50
24224;DHT22;12359;49.716;9.212;2022-11-18T15:51:23;9.50;69.50
24224;DHT22;12359;49.716;9.212;2022-11-18T15:53:49;9.40;66.00
24224;DHT22;12359;49.716;9.212;2022-11-18T16:01:35;9.30;68.20
24224;DHT22;12359;49.716;9.212;2022-11-18T16:04:02;9.30;70.60
24224;DHT22;12359;49.716;9.212;2022-11-18T16:06:28;9.20;71.60
24224;DHT22;12359;49.716;9.212;2022-11-18T16:08:55;9.20;71.50
24224;DHT22;12359;49.716;9.212;2022-11-18T16:11:21;9.20;74.20
24224;DHT22;12359;49.716;9.212;2022-11-18T16:14:08;9.20;71.90
24224;DHT22;12359;49.716;9.212;2022-11-18T16:16:35;9.10;74.70
24224;DHT22;12359;49.716;9.212;2022-11-18T16:19:04;9.10;74.20
24224;DHT22;12359;49.716;9.212;2022-11-18T16:21:32;9.00;72.70
24224;DHT22;12359;49.716;9.212;2022-11-18T16:24:00;9.00;76.10
24224;DHT22;12359;49.716;9.212;2022-11-18T16:26:26;9.00;75.90
24224;DHT22;12359;49.716;9.212;2022-11-18T16:28:53;9.00;76.60
24224;DHT22;12359;49.716;9.212;2022-11-18T16:31:19;8.90;74.40
24224;DHT22;12359;49.716;9.212;2022-11-18T16:34:25;8.90;73.30
24224;DHT22;12359;49.716;9.212;2022-11-18T16:36:52;8.80;71.80
24224;DHT22;12359;49.716;9.212;2022-11-18T16:39:19;8.80;72.30
24224;DHT22;12359;49.716;9.212;2022-11-18T16:41:50;8.70;72.30
24224;DHT22;12359;49.716;9.212;2022-11-18T16:44:16;8.70;74.70
24224;DHT22;12359;49.716;9.212;2022-11-18T16:46:47;8.60;74.80
24224;DHT22;12359;49.716;9.212;2022-11-18T16:49:14;8.60;74.40
24224;DHT22;12359;49.716;9.212;2022-11-18T16:51:41;8.60;75.70
24224;DHT22;12359;49.716;9.212;2022-11-18T16:54:16;8.50;75.90
24224;DHT22;12359;49.716;9.212;2022-11-18T16:56:46;8.50;75.70
24224;DHT22;12359;49.716;9.212;2022-11-18T16:59:29;8.50;75.60
24224;DHT22;12359;49.716;9.212;2022-11-18T17:01:56;8.50;76.50
24224;DHT22;12359;49.716;9.212;2022-11-18T17:04:22;8.40;77.60
24224;DHT22;12359;49.716;9.212;2022-11-18T17:06:49;8.40;77.60
24224;DHT22;12359;49.716;9.212;2022-11-18T17:09:20;8.30;75.20
24224;DHT22;12359;49.716;9.212;2022-11-18T17:11:47;8.30;68.40
24224;DHT22;12359;49.716;9.212;2022-11-18T17:14:12;8.20;65.90
24224;DHT22;12359;49.716;9.212;2022-11-18T17:16:38;8.10;68.10
24224;DHT22;12359;49.716;9.212;2022-11-18T17:19:04;8.00;69.30
24224;DHT22;12359;49.716;9.212;2022-11-18T17:21:30;7.90;65.60
24224;DHT22;12359;49.716;9.212;2022-11-18T17:23:56;7.80;69.00
24224;DHT22;12359;49.716;9.212;2022-11-18T17:26:25;7.80;72.50
24224;DHT22;12359;49.716;9.212;2022-11-18T17:28:51;7.80;76.90
24224;DHT22;12359;49.716;9.212;2022-11-18T17:31:19;7.90;82.60
24224;DHT22;12359;49.716;9.212;2022-11-18T17:33:46;8.00;85.10
24224;DHT22;12359;49.716;9.212;2022-11-18T17:36:18;8.00;85.40
24224;DHT22;12359;49.716;9.212;2022-11-18T17:38:46;8.10;83.50
24224;DHT22;12359;49.716;9.212;2022-11-18T17:41:17;8.20;82.20
24224;DHT22;12359;49.716;9.212;2022-11-18T17:44:02;8.30;82.50
24224;DHT22;12359;49.716;9.212;2022-11-18T17:46:28;8.40;81.70
24224;DHT22;12359;49.716;9.212;2022-11-18T17:48:56;8.40;79.30
24224;DHT22;12359;49.716;9.212;2022-11-18T17:51:22;8.50;80.10
24224;DHT22;12359;49.716;9.212;2022-11-18T17:53:49;8.40;77.10
24224;DHT22;12359;49.716;9.212;2022-11-18T17:56:16;8.40;74.20
24224;DHT22;12359;49.716;9.212;2022-11-18T17:58:42;8.40;74.70
24224;DHT22;12359;49.716;9.212;2022-11-18T18:01:08;8.30;66.50
24224;DHT22;12359;49.716;9.212;2022-11-18T18:03:35;8.20;64.70
24224;DHT22;12359;49.716;9.212;2022-11-18T18:06:02;8.10;69.20
24224;DHT22;12359;49.716;9.212;2022-11-18T18:08:27;8.00;64.20
24224;DHT22;12359;49.716;9.212;2022-11-18T18:10:53;7.90;65.70
24224;DHT22;12359;49.716;9.212;2022-11-18T18:13:19;7.80;67.40
24224;DHT22;12359;49.716;9.212;2022-11-18T18:16:03;7.70;73.40
24224;DHT22;12359;49.716;9.212;2022-11-18T18:18:29;7.70;79.60